Latest Weather Observations for Maryborough

IDQ60801

Issued at 1:32 pm EST Friday 19 January 2018 (issued every 30 minutes, with the page automatically refreshed every 10 minutes)

About weather observations | Map of weather stations | Latest weather observations for QLD | Other Formats
Station Details ID: 040126 Name: MARYBOROUGH Lat: -25.51 Lon: 152.72 Height: 8.98 m
Data from the previous 72 hours. | See also: Recent months at Maryborough
Date/Time
EST
Temp
°C
App
Temp
°C
Dew
Point
°C
Rel
Hum
%
Delta-T
°C
Wind Press
QNH
hPa
Press
MSL
hPa
Rain since
9am
mm
Dir  Spd
km/h
Gust
km/h
Spd
kts
Gust
kts
19/01:30pm 30.3 29.7 16.7 44 8.5 E 15 26 8 14 1013.0 - 0.0
19/01:00pm 30.5 30.3 18.6 49 7.7 SE 17 26 9 14 1013.3 - 0.0
19/12:30pm 30.3 30.6 17.0 44 8.4 ENE 11 20 6 11 1013.7 - 0.0
19/12:00pm 29.6 30.7 17.1 47 7.9 ESE 7 13 4 7 1014.0 1013.9 0.0
19/11:30am 29.7 30.1 17.2 47 7.9 SE 11 19 6 10 1014.4 - 0.0
19/11:00am 28.6 28.1 15.8 45 7.9 SE 13 20 7 11 1014.8 - 0.0
19/10:30am 27.9 28.0 17.4 52 6.6 S 13 20 7 11 1014.9 - 0.0
19/10:00am 26.9 26.4 16.8 54 6.3 SE 15 24 8 13 1015.3 - 0.0
19/09:30am 26.4 26.8 17.2 57 5.7 S 11 17 6 9 1015.4 - 0.0
19/09:00am 25.3 25.4 17.5 62 4.9 S 13 20 7 11 1015.5 1015.4 0.0
19/08:30am 25.3 25.1 17.5 62 4.9 S 15 20 8 11 1015.7 - 0.0
19/08:00am 24.2 23.9 18.2 69 3.8 S 17 20 9 11 1015.6 - 0.0
19/07:30am 23.0 23.5 18.3 75 2.9 SSW 13 20 7 11 1015.9 - 0.0
19/07:00am 20.9 21.3 17.3 80 2.2 S 11 17 6 9 1015.7 - 0.0
19/06:30am 19.7 21.0 17.5 87 1.3 SW 7 11 4 6 1015.6 - 0.0
19/06:00am 18.2 19.5 17.0 93 0.7 SSW 6 7 3 4 1015.4 1015.3 0.0
19/05:30am 17.1 18.0 16.0 93 0.6 WSW 6 7 3 4 1015.2 - 0.0
19/05:00am 16.9 17.7 15.8 93 0.6 SW 6 7 3 4 1015.0 - 0.0
19/04:30am 16.9 17.7 15.8 93 0.6 SW 6 7 3 4 1014.8 - 0.0
19/04:00am 16.6 17.3 15.5 93 0.6 SW 6 7 3 4 1014.8 - 0.0
19/03:30am 16.9 17.6 15.6 92 0.8 WSW 6 9 3 5 1015.1 - 0.0
19/03:00am 17.0 17.7 15.7 92 0.8 WSW 6 7 3 4 1015.3 1015.2 0.0
19/02:30am 17.1 18.0 16.0 93 0.6 WSW 6 7 3 4 1015.5 - 0.0
19/02:00am 16.7 17.3 15.4 92 0.8 WSW 6 9 3 5 1015.5 - 0.0
19/01:30am 17.1 18.9 15.6 91 0.9 CALM 0 0 0 0 1015.8 - 0.0
19/01:00am 17.2 19.0 15.4 89 1.1 CALM 0 0 0 0 1016.1 - 0.0
19/12:30am 17.6 19.2 15.9 90 1.0 S 2 6 1 3 1016.3 - 0.0
19/12:00am 18.3 19.3 16.3 88 1.2 S 6 7 3 4 1016.7 1016.6 0.0
 
Date/Time
EST
Temp
°C
App
Temp
°C
Dew
Point
°C
Rel
Hum
%
Delta-T
°C
Wind Press
QNH
hPa
Press
MSL
hPa
Rain since
9am
mm
Dir  Spd
km/h
Gust
km/h
Spd
kts
Gust
kts
18/11:30pm 18.7 19.6 16.7 88 1.2 S 7 9 4 5 1016.8 - 0.0
18/11:00pm 18.8 19.3 16.6 87 1.3 S 9 11 5 6 1016.9 - 0.0
18/10:30pm 19.3 20.5 17.3 88 1.2 SE 7 9 4 5 1017.2 - 0.0
18/10:00pm 19.2 20.2 16.8 86 1.4 SE 7 9 4 5 1017.2 - 0.0
18/09:30pm 19.3 20.3 16.3 83 1.8 SE 6 6 3 3 1017.2 - 0.0
18/09:00pm 20.0 21.0 16.8 82 1.9 SE 7 7 4 4 1017.1 1017.0 0.0
18/08:30pm 19.7 20.5 16.3 81 2.0 ESE 7 7 4 4 1016.9 - 0.0
18/08:00pm 20.4 21.1 15.6 74 2.9 ESE 6 7 3 4 1016.7 - 0.0
18/07:30pm 22.3 23.1 16.3 69 3.6 E 7 9 4 5 1016.4 - 0.0
18/07:00pm 23.1 23.5 16.4 66 4.1 E 9 11 5 6 1016.1 - 0.0
18/06:30pm 24.1 24.2 16.4 62 4.7 ESE 11 17 6 9 1015.8 - 0.0
18/06:00pm 25.4 25.0 16.3 57 5.6 E 13 20 7 11 1015.6 1015.5 0.0
18/05:30pm 26.4 25.9 16.9 56 5.9 ESE 15 22 8 12 1015.4 - 0.0
18/05:00pm 27.2 26.9 17.4 55 6.2 E 15 24 8 13 1015.1 - 0.0
18/04:30pm 27.3 26.0 16.9 53 6.5 E 19 26 10 14 1015.0 - 0.0
18/04:00pm 28.2 27.3 17.7 53 6.6 ESE 19 33 10 18 1015.1 - 0.0
18/03:30pm 28.1 27.1 17.6 53 6.6 ESE 19 30 10 16 1015.2 - 0.0
18/03:00pm 28.7 27.7 17.9 52 6.9 ESE 20 30 11 16 1015.6 1015.5 0.0
18/02:30pm 28.8 27.7 18.6 54 6.6 ESE 22 33 12 18 1015.9 - 0.0
18/02:00pm 28.0 27.0 17.5 52 6.6 E 19 30 10 16 1016.2 - 0.0
18/01:30pm 28.6 28.2 19.0 56 6.2 ESE 19 28 10 15 1016.4 - 0.0
18/01:00pm 28.6 28.4 18.4 54 6.5 ESE 17 24 9 13 1016.6 - 0.0
18/12:30pm 28.3 28.4 18.4 55 6.3 E 15 24 8 13 1016.9 - 0.0
18/12:00pm 28.5 28.0 18.6 55 6.3 ESE 19 32 10 17 1017.3 1017.2 0.0
18/11:30am 28.7 28.9 19.3 56 6.1 ESE 17 32 9 17 1017.7 - 0.0
18/11:00am 28.2 28.2 18.0 54 6.5 ESE 15 24 8 13 1018.1 - 0.0
18/10:30am 28.0 27.8 17.5 52 6.6 ESE 15 22 8 12 1018.3 - 0.0
18/10:00am 26.8 26.2 16.7 54 6.3 ESE 15 24 8 13 1018.6 - 0.0
18/09:30am 26.8 26.6 16.7 54 6.3 SE 13 19 7 10 1018.5 - 0.0
18/09:00am 26.1 25.8 16.4 55 6.0 ESE 13 19 7 10 1018.6 1018.5 0.0
18/08:30am 26.5 26.4 17.0 56 5.9 ESE 13 20 7 11 1018.6 - 0.0
18/08:00am 25.5 25.8 16.9 59 5.3 SE 11 15 6 8 1018.4 - 0.0
18/07:30am 23.7 24.2 17.4 68 3.9 SSE 11 13 6 7 1018.3 - 0.0
18/07:00am 21.5 21.7 17.7 79 2.3 S 13 17 7 9 1018.2 - 0.0
18/06:30am 19.5 19.2 16.5 83 1.8 S 13 17 7 9 1018.1 - 0.0
18/06:00am 19.3 20.7 17.3 88 1.2 SSW 6 9 3 5 1017.7 1017.6 0.0
18/05:30am 17.8 18.4 15.8 88 1.2 SSW 7 11 4 6 1017.3 - 0.0
18/05:00am 17.3 17.4 15.5 89 1.1 S 9 11 5 6 1017.1 - 0.0
18/04:30am 17.5 17.6 15.5 88 1.2 S 9 13 5 7 1016.7 - 0.0
18/04:00am 17.6 18.1 15.6 88 1.2 S 7 11 4 6 1016.5 - 0.0
18/03:30am 17.7 18.2 15.5 87 1.3 S 7 9 4 5 1016.4 - 0.0
18/03:00am 18.0 18.6 15.8 87 1.3 S 7 9 4 5 1016.6 1016.5 0.0
18/02:30am 18.2 18.4 15.8 86 1.4 S 9 13 5 7 1016.9 - 0.0
18/02:00am 18.2 18.5 16.0 87 1.3 S 9 11 5 6 1017.0 - 0.0
18/01:30am 18.5 18.8 15.9 85 1.5 S 9 11 5 6 1017.4 - 0.0
18/01:00am 18.6 19.3 16.0 85 1.5 S 7 9 4 5 1017.6 - 0.0
18/12:30am 18.8 19.5 16.2 85 1.6 S 7 11 4 6 1017.8 - 0.0
18/12:00am 18.4 19.1 16.0 86 1.4 S 7 11 4 6 1018.0 1017.9 0.0
 
Date/Time
EST
Temp
°C
App
Temp
°C
Dew
Point
°C
Rel
Hum
%
Delta-T
°C
Wind Press
QNH
hPa
Press
MSL
hPa
Rain since
9am
mm
Dir  Spd
km/h
Gust
km/h
Spd
kts
Gust
kts
17/11:30pm 18.9 20.9 16.1 84 1.7 CALM 0 0 0 0 1018.2 - 0.0
17/11:00pm 19.5 20.5 16.3 82 1.9 S 6 7 3 4 1018.2 - 0.0
17/10:30pm 19.6 20.0 16.4 82 1.9 S 9 11 5 6 1018.2 - 0.0
17/10:00pm 19.6 20.4 16.4 82 1.9 S 7 9 4 5 1018.0 - 0.0
17/09:30pm 19.6 21.6 16.1 80 2.1 CALM 0 0 0 0 1017.8 - 0.0
17/09:00pm 20.2 21.5 16.2 78 2.4 SE 4 7 2 4 1017.6 1017.5 0.0
17/08:30pm 20.5 21.3 16.3 77 2.5 SE 7 9 4 5 1017.3 - 0.0
17/08:00pm 21.0 21.7 16.0 73 3.0 ESE 7 9 4 5 1017.1 - 0.0
17/07:30pm 22.0 22.2 15.8 68 3.7 ESE 9 11 5 6 1016.9 - 0.0
17/07:00pm 23.0 22.6 15.3 62 4.6 ESE 11 13 6 7 1016.5 - 0.0
17/06:30pm 23.9 23.6 15.4 59 5.1 ESE 11 20 6 11 1016.2 - 0.0
17/06:00pm 24.6 23.6 15.5 57 5.5 E 15 22 8 12 1015.9 1015.8 0.0
17/05:30pm 25.9 25.2 16.5 56 5.8 ESE 15 26 8 14 1015.5 - 0.0
17/05:00pm 26.1 24.8 15.8 53 6.3 E 17 24 9 13 1015.0 - 0.0
17/04:30pm 27.1 26.0 16.4 52 6.6 ESE 17 26 9 14 1014.7 - 0.0
17/04:00pm 27.3 26.2 16.3 51 6.8 E 17 28 9 15 1014.5 - 0.0
17/03:30pm 28.3 27.4 16.9 50 7.1 ESE 17 28 9 15 1014.5 - 0.0
17/03:00pm 28.7 27.9 17.9 52 6.9 ESE 19 26 10 14 1014.6 1014.5 0.0
17/02:30pm 28.1 27.3 17.0 51 6.9 ESE 17 32 9 17 1014.8 - 0.0
17/02:00pm 28.2 27.5 17.4 52 6.8 ESE 17 28 9 15 1015.1 - 0.0
17/01:30pm 28.1 27.2 18.2 55 6.3 SE 20 32 11 17 1015.4 - 0.0
17/01:00pm 28.4 28.0 18.8 56 6.2 ESE 19 30 10 16 1015.5 - 0.0
17/12:30pm 28.2 27.7 18.6 56 6.2 ESE 19 28 10 15 1015.7 - 0.0
17/12:00pm 28.4 27.6 17.0 50 7.1 SE 17 28 9 15 1016.1 1016.0 0.0
17/11:30am 28.0 27.2 18.1 55 6.3 SE 19 28 10 15 1016.2 - 0.0
17/11:00am 27.8 28.7 18.5 57 5.9 E 11 22 6 12 1016.3 - 0.0
17/10:30am 27.0 26.4 16.6 53 6.4 ESE 15 24 8 13 1016.7 - 0.0
17/10:00am 26.5 25.7 16.1 52 6.4 SE 15 22 8 12 1016.5 - 0.0
17/09:30am 26.5 26.4 17.8 58 5.5 SE 15 24 8 13 1016.7 - 0.0
17/09:00am 25.6 25.3 17.3 60 5.2 SE 15 24 8 13 1016.7 1016.6 0.0
17/08:30am 25.6 26.1 18.3 64 4.6 S 13 19 7 10 1016.6 - 0.0
17/08:00am 23.6 23.6 17.1 67 4.0 S 13 19 7 10 1016.6 - 0.0
17/07:30am 22.7 21.4 16.7 69 3.7 S 19 24 10 13 1016.5 - 0.0
17/07:00am 21.1 20.5 16.7 76 2.7 S 15 20 8 11 1016.1 - 0.0
17/06:30am 20.5 20.0 15.9 75 2.7 S 13 19 7 10 1016.0 - 0.0
17/06:00am 19.9 20.1 15.7 77 2.5 SSW 9 13 5 7 1015.6 1015.5 0.0
17/05:30am 19.4 19.1 15.5 78 2.3 SSW 11 17 6 9 1015.0 - 0.0
17/05:00am 18.7 19.1 15.4 81 1.9 SSW 7 9 4 5 1014.9 - 0.0
17/04:30am 18.9 18.7 15.8 82 1.8 S 11 15 6 8 1014.5 - 0.0
17/04:00am 18.6 19.2 15.7 83 1.7 SSW 7 9 4 5 1014.4 - 0.0
17/03:30am 18.8 19.6 15.9 83 1.7 SSW 6 7 3 4 1014.3 - 0.0
17/03:00am 18.7 19.8 15.6 82 1.8 S 4 6 2 3 1014.4 1014.3 0.0
17/02:30am 19.0 19.7 16.2 84 1.7 S 7 9 4 5 1014.5 - 0.0
17/02:00am 18.6 19.3 15.7 83 1.7 S 6 9 3 5 1014.6 - 0.0
17/01:30am 18.9 19.0 15.4 80 2.1 S 9 11 5 6 1014.7 - 0.0
17/01:00am 19.9 20.3 16.3 80 2.2 S 9 13 5 7 1014.8 - 0.0
17/12:30am 19.2 19.8 15.3 78 2.3 S 6 9 3 5 1014.9 - 0.0
17/12:00am 19.2 19.2 15.1 77 2.4 S 9 11 5 6 1015.1 1015.0 0.0
 
Date/Time
EST
Temp
°C
App
Temp
°C
Dew
Point
°C
Rel
Hum
%
Delta-T
°C
Wind Press
QNH
hPa
Press
MSL
hPa
Rain since
9am
mm
Dir  Spd
km/h
Gust
km/h
Spd
kts
Gust
kts
16/11:30pm 19.5 19.5 15.2 76 2.5 S 9 11 5 6 1015.1 - 0.0
16/11:00pm 20.8 20.6 15.6 72 3.1 SE 11 17 6 9 1015.3 - 0.0
16/10:30pm 21.7 21.5 14.6 64 4.2 ESE 9 15 5 8 1015.4 - 0.0
16/10:00pm 22.4 21.3 15.3 64 4.2 ESE 15 20 8 11 1015.2 - 0.0
16/09:30pm 22.3 21.8 15.9 67 3.9 ESE 13 20 7 11 1015.4 - 0.0
16/09:00pm 22.4 21.7 16.4 69 3.6 SE 15 24 8 13 1015.3 1015.2 0.0
16/08:30pm 21.2 20.6 15.7 71 3.3 SE 13 15 7 8 1015.1 - 0.0
16/08:00pm 22.3 21.0 15.9 67 3.9 SE 17 24 9 13 1015.1 - 0.0
16/07:30pm 22.6 21.6 15.7 65 4.1 SE 15 22 8 12 1014.9 - 0.0
16/07:00pm 23.1 21.2 15.2 61 4.7 SE 19 28 10 15 1014.6 - 0.0
16/06:30pm 24.0 21.3 15.5 59 5.1 SE 24 33 13 18 1014.2 - 0.0
16/06:00pm 24.8 22.0 15.4 56 5.7 ESE 24 43 13 23 1013.8 1013.7 0.0
16/05:35pm 25.3 21.3 15.3 54 6.0 SE 30 48 16 26 1013.3 - 0.0
16/05:30pm 25.4 20.7 14.8 52 6.3 SE 33 48 18 26 1013.2 - 0.0
16/05:17pm 25.6 21.8 14.7 51 6.5 ESE 28 46 15 25 1013.1 - 0.0
16/05:00pm 26.2 22.1 15.0 50 6.7 ESE 30 43 16 23 1012.7 - 0.0
16/04:30pm 26.8 23.3 14.5 46 7.4 ESE 26 37 14 20 1012.4 - 0.0
16/04:00pm 27.1 23.6 14.5 46 7.6 ESE 26 43 14 23 1012.4 - 0.0
16/03:30pm 27.5 23.9 15.2 47 7.5 ESE 28 43 15 23 1012.2 - 0.0
16/03:22pm 27.4 23.9 15.4 48 7.3 ESE 28 46 15 25 1012.3 - 0.0
16/03:00pm 27.9 25.2 15.5 46 7.6 ESE 24 37 13 20 1012.5 1012.4 0.0
16/02:30pm 27.8 25.1 15.5 47 7.5 E 24 43 13 23 1012.7 - 0.0
16/02:00pm 28.6 25.2 14.8 43 8.4 ESE 26 39 14 21 1012.7 - 0.0

Other Formats:

Comma delimited format used in spreadsheet applications
http://www.bom.gov.au/fwo/IDQ60801/IDQ60801.94567.axf

JavaScript Object Notation format (JSON) in row-major order
http://www.bom.gov.au/fwo/IDQ60801/IDQ60801.94567.json